< < Back
Terminal Aerodrome Forecast


Current Version              Previous Versions:   1  2  3  4  5  6  7  8  9  

Terminal Aerodrome Forecast

991
FTUS44 KMRX 281135
TAFTYS
TAF
KTYS 281135Z 2812/2912 22005KT P6SM BKN035 BKN060
     FM281500 23012KT P6SM BKN040
     FM282200 24015KT P6SM VCTS BKN040CB
     FM290200 25012KT 4SM -SHRA BR OVC015
     FM290600 22004KT P6SM OVC015
     FM291000 23004KT 4SM BR OVC015=

Latest METAR

676
SAUS80 KWBC 290000
MTRTYS
METAR KTYS 282353Z 27011G21KT 10SM BKN022 BKN033 OVC060 26/21 A2993 RMK
AO2 PK WND 23027/2257 SLP122 60001 T02610211 10311 20256
53012


USA.gov is the U.S. government's official web portal to all federal, state and local government web resources and services.